Time;durP1;ratioP1;P1;durP2;ratioP2;P2;SDS_P1;SDS_P2;PMS_P1;PMS_P2;Temp;Humidity;BMP_temperature;BMP_pressure;BME280_temperature;BME280_humidity;BME280_pressure;Samples;Min_cycle;Max_cycle;Signal;HPM_P1;HPM_P2
2022/11/23 00:02:18;;;;;;;8.37;2.20;;;7.80;99.90;;;;;;10434391;28;20224;-76
2022/11/23 00:07:19;;;;;;;8.53;2.60;;;7.80;99.90;;;;;;10432029;28;20276;-77
2022/11/23 00:12:20;;;;;;;8.63;3.37;;;7.80;99.90;;;;;;10432791;28;20259;-77
2022/11/23 00:17:20;;;;;;;5.83;2.30;;;7.70;99.90;;;;;;10439666;28;20222;-77
2022/11/23 00:22:21;;;;;;;5.43;2.13;;;7.70;99.90;;;;;;10430306;28;20780;-77
2022/11/23 00:27:22;;;;;;;7.67;2.23;;;7.50;99.90;;;;;;10439495;28;20623;-80
2022/11/23 00:32:22;;;;;;;5.37;1.97;;;7.60;99.90;;;;;;10431399;28;20691;-75
2022/11/23 00:37:26;;;;;;;6.73;2.20;;;7.60;99.90;;;;;;10437474;28;20224;-79
2022/11/23 00:42:26;;;;;;;6.83;2.30;;;7.50;99.90;;;;;;10431144;28;20277;-78
2022/11/23 00:47:27;;;;;;;8.20;2.27;;;7.50;99.90;;;;;;10441051;28;20294;-76
2022/11/23 00:58:09;;;;;;;9.00;2.87;;;7.60;99.90;;;;;;10438758;28;20363;-75
2022/11/23 01:03:09;;;;;;;12.03;2.37;;;7.70;99.90;;;;;;10434911;28;20367;-75
2022/11/23 01:08:10;;;;;;;6.20;2.20;;;7.70;99.90;;;;;;10436945;28;20227;-75
2022/11/23 01:44:57;;;;;;;6.90;2.13;;;8.00;99.90;;;;;;10271843;28;20252;-87
2022/11/23 01:49:57;;;;;;;7.90;2.17;;;8.10;99.90;;;;;;10315455;28;20305;-81
2022/11/23 01:54:58;;;;;;;8.27;2.20;;;8.00;99.90;;;;;;10405396;28;20311;-78
2022/11/23 01:59:59;;;;;;;7.40;2.23;;;8.10;99.90;;;;;;10428440;28;20317;-80
2022/11/23 02:05:04;;;;;;;7.60;2.90;;;8.10;99.90;;;;;;10455690;28;20321;-80
2022/11/23 02:10:05;;;;;;;7.03;2.73;;;8.10;99.90;;;;;;10428895;28;20290;-79
2022/11/23 02:15:06;;;;;;;6.20;2.30;;;8.10;99.90;;;;;;10439096;28;20226;-79
2022/11/23 02:20:10;;;;;;;6.43;2.07;;;8.10;99.90;;;;;;10431560;28;20181;-78
2022/11/23 02:25:27;;;;;;;8.00;2.53;;;8.10;99.90;;;;;;10427534;28;20218;-78
2022/11/23 02:30:32;;;;;;;5.30;2.37;;;8.00;99.90;;;;;;10434968;28;20212;-79
2022/11/23 02:35:33;;;;;;;6.20;2.43;;;8.00;99.90;;;;;;10431057;28;20212;-78
2022/11/23 02:40:35;;;;;;;7.63;2.07;;;8.00;99.90;;;;;;10436965;28;20209;-80
2022/11/23 02:45:40;;;;;;;8.10;2.37;;;7.90;99.90;;;;;;10434149;28;20233;-82
2022/11/23 02:50:40;;;;;;;6.63;2.10;;;7.90;99.90;;;;;;10428199;28;20244;-82
2022/11/23 02:55:41;;;;;;;6.63;2.03;;;7.90;99.90;;;;;;10430636;28;20222;-81
2022/11/23 03:00:44;;;;;;;5.93;2.03;;;7.90;99.90;;;;;;10442963;28;20891;-82
2022/11/23 03:05:54;;;;;;;8.10;2.23;;;7.80;99.90;;;;;;10422996;28;20228;-80
2022/11/23 03:16:33;;;;;;;6.57;2.20;;;7.80;99.90;;;;;;10429971;28;20248;-79
2022/11/23 03:21:34;;;;;;;5.63;2.10;;;7.80;99.90;;;;;;10432231;28;20251;-79
2022/11/23 03:26:34;;;;;;;7.93;2.30;;;7.80;99.90;;;;;;10443349;28;20661;-79
2022/11/23 03:31:35;;;;;;;9.13;2.17;;;7.90;99.90;;;;;;10433449;28;20228;-81
2022/11/23 03:36:36;;;;;;;8.63;2.10;;;7.90;99.90;;;;;;10443719;28;20873;-78
2022/11/23 03:41:37;;;;;;;12.03;2.27;;;7.90;99.90;;;;;;10441633;28;20225;-79
2022/11/23 03:46:37;;;;;;;5.47;2.07;;;7.90;99.90;;;;;;10433127;28;20283;-78
2022/11/23 03:51:38;;;;;;;8.03;2.07;;;7.90;99.90;;;;;;10439666;28;20221;-78
2022/11/23 03:56:38;;;;;;;7.97;2.40;;;7.90;99.90;;;;;;10432366;28;20273;-76
2022/11/23 04:01:39;;;;;;;9.93;2.70;;;7.90;99.90;;;;;;10434107;28;20224;-77
2022/11/23 04:06:41;;;;;;;7.83;1.93;;;7.90;99.90;;;;;;10432940;28;20323;-76
2022/11/23 04:11:41;;;;;;;7.17;1.87;;;7.80;99.90;;;;;;10451284;28;20251;-76
2022/11/23 04:16:42;;;;;;;4.77;1.90;;;7.80;99.90;;;;;;10443857;28;20229;-76
2022/11/23 04:21:43;;;;;;;5.17;2.20;;;7.80;99.90;;;;;;10427515;28;20225;-77
2022/11/23 04:26:43;;;;;;;6.40;2.00;;;7.80;99.90;;;;;;10447978;28;20213;-78
2022/11/23 04:31:44;;;;;;;4.60;2.00;;;7.80;99.90;;;;;;10447620;28;20230;-77
2022/11/23 04:36:45;;;;;;;7.53;2.10;;;7.80;99.90;;;;;;10441234;28;20753;-77
2022/11/23 04:41:45;;;;;;;7.77;2.20;;;7.80;99.90;;;;;;10452920;28;20760;-79
2022/11/23 04:46:46;;;;;;;5.87;1.57;;;7.80;99.90;;;;;;10426280;28;20225;-75
2022/11/23 04:51:47;;;;;;;7.53;2.33;;;7.70;99.90;;;;;;10430882;28;20214;-78
2022/11/23 04:56:47;;;;;;;8.20;2.33;;;7.70;99.90;;;;;;10424417;28;20219;-74
2022/11/23 05:01:51;;;;;;;4.60;1.73;;;7.60;99.90;;;;;;10428130;28;20220;-76
2022/11/23 05:06:51;;;;;;;6.53;1.80;;;7.60;99.90;;;;;;10464080;28;20251;-75
2022/11/23 05:11:54;;;;;;;8.00;2.13;;;7.70;99.90;;;;;;10436151;28;20230;-75
2022/11/23 05:16:55;;;;;;;7.40;1.87;;;7.70;99.90;;;;;;10450950;28;20246;-78
2022/11/23 05:21:55;;;;;;;4.93;2.03;;;7.60;99.90;;;;;;10426022;28;20718;-76
2022/11/23 05:26:56;;;;;;;5.70;2.00;;;7.60;99.90;;;;;;10428440;28;20226;-76
2022/11/23 05:31:57;;;;;;;7.70;2.03;;;7.60;99.90;;;;;;10433541;28;20262;-76
2022/11/23 05:36:57;;;;;;;4.47;1.90;;;7.60;99.90;;;;;;10430952;28;20602;-74
2022/11/23 05:41:58;;;;;;;5.40;2.00;;;7.60;99.90;;;;;;10434367;28;20754;-72
2022/11/23 05:46:58;;;;;;;5.63;2.20;;;7.70;99.90;;;;;;10432793;28;20228;-75
2022/11/23 05:51:59;;;;;;;8.40;3.43;;;7.70;99.90;;;;;;10440873;28;20229;-75
2022/11/23 05:57:00;;;;;;;7.50;4.03;;;7.70;99.90;;;;;;10444189;28;20212;-74
2022/11/23 06:02:00;;;;;;;8.77;2.73;;;7.70;99.90;;;;;;10440679;28;20220;-74
2022/11/23 06:07:01;;;;;;;7.50;3.10;;;7.70;99.90;;;;;;10435062;28;20212;-78
2022/11/23 06:12:02;;;;;;;10.40;4.30;;;7.80;99.90;;;;;;10429337;28;20220;-77
2022/11/23 06:17:03;;;;;;;8.73;3.30;;;7.80;99.90;;;;;;10435173;28;20242;-71
2022/11/23 06:22:03;;;;;;;9.27;3.57;;;7.70;99.90;;;;;;10443188;28;20300;-71
2022/11/23 06:27:04;;;;;;;9.27;3.33;;;7.80;99.90;;;;;;10435592;28;20223;-71
2022/11/23 06:32:06;;;;;;;6.70;2.93;;;7.70;99.90;;;;;;10427690;28;20276;-75
2022/11/23 06:37:07;;;;;;;8.47;4.00;;;7.70;99.90;;;;;;10430690;28;20213;-70
2022/11/23 06:42:08;;;;;;;9.10;2.37;;;7.70;99.90;;;;;;10437949;28;20617;-70
2022/11/23 06:47:08;;;;;;;4.63;2.20;;;7.80;99.90;;;;;;10422874;28;20222;-73
2022/11/23 06:52:09;;;;;;;7.47;2.07;;;7.80;99.90;;;;;;10420745;28;20255;-74
2022/11/23 06:57:09;;;;;;;5.80;1.90;;;7.80;99.90;;;;;;10426449;28;20220;-71
2022/11/23 07:02:11;;;;;;;6.80;2.17;;;7.80;99.90;;;;;;10425533;28;20271;-72
2022/11/23 07:07:11;;;;;;;6.80;2.87;;;7.80;99.90;;;;;;10429044;28;20220;-72
2022/11/23 07:12:12;;;;;;;8.83;1.93;;;7.80;99.90;;;;;;10436100;28;20215;-72
2022/11/23 07:17:12;;;;;;;4.97;1.90;;;7.80;99.90;;;;;;10422172;28;20881;-73
2022/11/23 07:22:13;;;;;;;10.80;2.13;;;7.90;99.90;;;;;;10429066;28;20225;-72
2022/11/23 07:27:16;;;;;;;5.97;1.87;;;7.90;99.90;;;;;;10423187;28;20263;-72
2022/11/23 07:32:16;;;;;;;5.80;1.80;;;7.90;99.90;;;;;;10430075;28;20227;-73
2022/11/23 07:37:17;;;;;;;6.13;1.80;;;7.90;99.90;;;;;;10422389;28;20219;-72
2022/11/23 07:42:19;;;;;;;4.93;2.10;;;8.10;99.90;;;;;;10421416;28;20230;-72
2022/11/23 07:47:19;;;;;;;4.27;1.97;;;8.20;99.90;;;;;;10428796;28;20696;-72
2022/11/23 07:52:20;;;;;;;6.63;1.93;;;8.30;99.90;;;;;;10430874;28;20306;-72
2022/11/23 07:57:20;;;;;;;7.60;2.03;;;8.30;99.90;;;;;;10430074;28;20241;-73
2022/11/23 08:02:21;;;;;;;5.93;1.70;;;8.40;99.90;;;;;;10421671;28;20217;-73
2022/11/23 08:07:21;;;;;;;5.87;1.90;;;8.50;99.90;;;;;;10432384;28;20234;-73
2022/11/23 08:12:22;;;;;;;6.07;2.40;;;8.70;99.90;;;;;;10429372;28;20299;-73
2022/11/23 08:17:22;;;;;;;4.23;1.67;;;8.70;99.90;;;;;;10428917;28;20565;-73
2022/11/23 08:22:23;;;;;;;6.60;2.30;;;8.90;99.90;;;;;;10437276;28;20245;-72
2022/11/23 08:27:23;;;;;;;3.93;2.00;;;9.20;99.90;;;;;;10429100;28;20218;-72
2022/11/23 08:32:24;;;;;;;4.63;1.93;;;11.50;99.90;;;;;;10448957;28;20250;-73
2022/11/23 08:37:24;;;;;;;5.50;2.10;;;15.40;99.90;;;;;;10428785;28;20228;-73
2022/11/23 08:42:25;;;;;;;5.00;2.07;;;18.50;99.90;;;;;;10435640;28;20242;-72
2022/11/23 08:47:26;;;;;;;6.73;2.10;;;20.40;93.90;;;;;;10427467;28;20220;-72
2022/11/23 08:52:26;;;;;;;5.37;2.20;;;21.40;83.70;;;;;;10435827;28;20224;-73
2022/11/23 08:57:27;;;;;;;6.73;2.20;;;21.70;77.10;;;;;;10426976;28;20789;-72
2022/11/23 09:02:28;;;;;;;4.97;2.00;;;22.30;71.60;;;;;;10431616;28;20693;-72
2022/11/23 09:07:28;;;;;;;7.17;2.40;;;23.20;66.20;;;;;;10446895;28;20219;-72
2022/11/23 09:12:29;;;;;;;5.90;2.10;;;24.20;59.80;;;;;;10428543;28;20237;-71
2022/11/23 09:17:32;;;;;;;5.50;2.20;;;24.30;56.40;;;;;;10431075;28;20661;-72
2022/11/23 09:22:33;;;;;;;6.17;2.47;;;24.10;55.60;;;;;;10427585;28;20231;-72
2022/11/23 09:27:34;;;;;;;6.40;2.30;;;24.60;54.10;;;;;;10435775;28;20223;-73
2022/11/23 09:32:34;;;;;;;5.80;1.93;;;25.00;51.80;;;;;;10433484;28;20307;-72
2022/11/23 09:37:35;;;;;;;5.43;2.50;;;25.40;50.90;;;;;;10428037;28;20233;-73
2022/11/23 09:43:14;;;;;;;4.13;2.00;;;25.60;49.50;;;;;;10430723;28;20604;-73
2022/11/23 09:48:47;;;;;;;5.40;2.33;;;25.90;49.10;;;;;;10427663;28;20283;-73
2022/11/23 09:53:51;;;;;;;6.10;2.40;;;26.60;46.90;;;;;;10426167;28;20781;-73
2022/11/23 09:58:55;;;;;;;4.70;2.10;;;26.60;46.50;;;;;;10428471;28;20231;-73
2022/11/23 10:03:56;;;;;;;5.47;2.17;;;26.60;45.90;;;;;;10430532;28;20235;-73
2022/11/23 10:09:16;;;;;;;3.70;1.90;;;27.00;46.00;;;;;;10435529;28;20219;-73
2022/11/23 10:14:32;;;;;;;6.37;2.37;;;26.90;44.60;;;;;;10424557;28;20223;-73
2022/11/23 10:19:51;;;;;;;4.77;1.90;;;27.40;44.20;;;;;;10427014;28;20274;-72
2022/11/23 10:24:52;;;;;;;6.83;2.63;;;27.80;43.10;;;;;;10427845;28;20232;-73
2022/11/23 10:29:55;;;;;;;6.27;2.33;;;28.10;42.20;;;;;;10429583;28;20312;-73
2022/11/23 10:35:12;;;;;;;9.43;2.23;;;27.60;42.50;;;;;;10437373;28;20314;-73
2022/11/23 10:40:17;;;;;;;5.10;2.03;;;28.20;41.80;;;;;;10434593;28;20247;-72
2022/11/23 10:45:22;;;;;;;6.03;2.00;;;28.30;41.30;;;;;;10432100;28;20655;-73
2022/11/23 10:50:36;;;;;;;5.73;2.10;;;28.60;41.20;;;;;;10425149;28;20181;-73
2022/11/23 10:55:48;;;;;;;3.93;1.90;;;29.30;39.50;;;;;;10435517;28;20273;-74
2022/11/23 11:00:58;;;;;;;4.27;1.80;;;29.00;39.10;;;;;;10429768;28;20222;-72
2022/11/23 11:06:01;;;;;;;4.70;2.30;;;28.30;39.80;;;;;;10437265;28;20721;-73
2022/11/23 11:11:06;;;;;;;6.70;2.27;;;25.10;43.40;;;;;;10431306;28;20225;-73
2022/11/23 11:16:25;;;;;;;5.47;2.27;;;20.10;52.40;;;;;;10427096;28;20220;-73
2022/11/23 11:21:39;;;;;;;4.27;1.97;;;16.70;61.60;;;;;;10425111;28;20220;-73
2022/11/23 11:26:56;;;;;;;5.73;1.70;;;15.00;69.40;;;;;;10427900;28;20273;-73
2022/11/23 11:32:03;;;;;;;4.60;1.80;;;14.10;74.20;;;;;;10428316;28;20222;-73
2022/11/23 11:37:30;;;;;;;6.07;2.13;;;13.50;78.50;;;;;;10432951;28;20229;-73
2022/11/23 11:42:50;;;;;;;4.47;1.80;;;13.10;81.30;;;;;;10425320;28;20231;-73
2022/11/23 11:48:13;;;;;;;5.83;2.03;;;12.80;84.30;;;;;;10435582;28;20227;-74
2022/11/23 11:53:23;;;;;;;4.17;1.90;;;12.50;87.00;;;;;;10440586;28;20582;-73
2022/11/23 11:58:25;;;;;;;7.10;2.17;;;12.20;88.20;;;;;;10472437;28;20758;-73
2022/11/23 12:03:31;;;;;;;5.97;1.67;;;12.10;88.90;;;;;;10439109;28;20234;-73
2022/11/23 12:08:49;;;;;;;6.40;1.70;;;12.10;90.50;;;;;;10450532;28;20211;-73
2022/11/23 12:13:56;;;;;;;7.97;2.00;;;12.00;90.70;;;;;;10433351;28;20245;-73
2022/11/23 12:19:30;;;;;;;5.40;1.63;;;11.90;90.60;;;;;;10432316;28;20220;-73
2022/11/23 12:24:49;;;;;;;6.90;2.20;;;11.90;91.40;;;;;;10431560;28;20223;-74
2022/11/23 12:30:02;;;;;;;4.53;1.60;;;12.00;91.80;;;;;;10431391;28;20214;-74
2022/11/23 12:35:17;;;;;;;6.50;1.53;;;12.00;92.30;;;;;;10432272;28;20298;-72
2022/11/23 12:40:52;;;;;;;5.57;1.30;;;11.90;91.80;;;;;;10442086;28;20219;-74
2022/11/23 12:46:32;;;;;;;5.70;1.20;;;11.90;92.30;;;;;;10438684;28;20243;-72
2022/11/23 12:51:57;;;;;;;4.53;1.53;;;11.70;90.10;;;;;;10386385;28;20307;-73
2022/11/23 12:57:16;;;;;;;4.33;1.50;;;11.60;91.00;;;;;;10431818;28;20222;-72
2022/11/23 13:03:09;;;;;;;5.47;1.10;;;11.60;91.30;;;;;;10437257;28;20806;-72
2022/11/23 13:08:51;;;;;;;5.43;1.53;;;11.60;90.50;;;;;;10435465;28;20216;-72
2022/11/23 13:14:18;;;;;;;6.50;1.80;;;11.60;91.40;;;;;;10434922;28;20247;-73
2022/11/23 13:19:49;;;;;;;3.90;1.20;;;11.60;90.20;;;;;;10439000;28;20728;-73
2022/11/23 13:25:01;;;;;;;4.93;1.20;;;11.50;90.50;;;;;;10400480;28;20231;-72
2022/11/23 13:30:20;;;;;;;5.50;1.83;;;11.50;90.30;;;;;;10431188;28;20610;-72
2022/11/23 13:35:20;;;;;;;6.23;1.63;;;11.40;90.80;;;;;;10434980;28;20225;-74
2022/11/23 13:40:25;;;;;;;9.30;1.50;;;11.40;91.00;;;;;;10419723;28;20187;-73
2022/11/23 13:45:29;;;;;;;6.63;1.50;;;11.30;91.50;;;;;;10426399;28;20227;-73
2022/11/23 13:50:31;;;;;;;4.97;1.50;;;11.30;91.90;;;;;;10435701;28;20213;-73
2022/11/23 13:55:37;;;;;;;4.33;1.20;;;11.20;92.40;;;;;;10427969;28;20214;-73
2022/11/23 14:00:57;;;;;;;4.07;1.80;;;11.10;92.90;;;;;;10429057;28;20231;-72
2022/11/23 14:06:01;;;;;;;5.73;1.47;;;11.00;93.40;;;;;;10429369;28;20702;-72
2022/11/23 14:11:14;;;;;;;5.47;1.40;;;11.00;93.80;;;;;;10424754;28;20232;-73
2022/11/23 14:16:31;;;;;;;4.73;1.70;;;10.90;93.90;;;;;;10443877;28;20219;-73
2022/11/23 14:22:12;;;;;;;5.53;1.63;;;10.80;94.40;;;;;;10425756;28;20227;-73
2022/11/23 14:27:32;;;;;;;6.37;1.80;;;10.80;95.30;;;;;;10403344;28;20235;-73
2022/11/23 14:33:10;;;;;;;8.63;4.13;;;10.70;95.80;;;;;;10424440;28;20235;-73
2022/11/23 14:38:41;;;;;;;3.87;1.90;;;10.60;96.30;;;;;;10430285;28;20234;-73
2022/11/23 14:43:45;;;;;;;4.13;1.97;;;10.40;96.70;;;;;;10428270;28;20227;-73
2022/11/23 14:48:47;;;;;;;4.80;1.40;;;10.30;97.00;;;;;;10443334;28;20294;-73
2022/11/23 14:54:01;;;;;;;6.30;1.50;;;10.20;97.60;;;;;;10431476;28;20753;-73
2022/11/23 14:59:13;;;;;;;6.83;1.60;;;10.10;97.30;;;;;;10435884;28;20218;-72
2022/11/23 15:04:56;;;;;;;5.07;1.87;;;10.00;97.30;;;;;;10427497;28;20237;-73
2022/11/23 15:10:15;;;;;;;6.97;2.13;;;10.00;97.90;;;;;;10394839;28;20308;-72
2022/11/23 15:15:18;;;;;;;8.27;1.90;;;9.90;98.80;;;;;;10431644;28;20238;-73
2022/11/23 15:20:21;;;;;;;8.77;2.10;;;9.80;99.50;;;;;;10424055;28;20683;-73
2022/11/23 15:25:22;;;;;;;3.57;1.60;;;9.80;99.90;;;;;;10431030;28;20207;-73
2022/11/23 15:30:28;;;;;;;8.63;1.70;;;9.70;99.90;;;;;;10423398;28;20333;-73
2022/11/23 15:35:32;;;;;;;5.83;1.77;;;9.60;99.90;;;;;;10430729;28;20215;-73
2022/11/23 15:40:35;;;;;;;3.77;1.60;;;9.50;99.90;;;;;;10424986;28;20289;-72
2022/11/23 15:45:44;;;;;;;6.27;1.70;;;9.40;99.90;;;;;;10429568;28;20244;-73
2022/11/23 15:50:53;;;;;;;5.43;1.80;;;9.30;99.90;;;;;;10421623;28;20633;-72
2022/11/23 15:56:00;;;;;;;5.53;1.90;;;9.30;99.90;;;;;;10427066;28;20571;-72
2022/11/23 16:01:27;;;;;;;5.73;1.93;;;9.30;99.90;;;;;;10426784;28;20674;-73
2022/11/23 16:06:30;;;;;;;4.80;1.60;;;9.30;99.90;;;;;;10420963;28;20239;-72
2022/11/23 16:11:43;;;;;;;3.93;1.80;;;9.20;99.90;;;;;;10422999;28;20757;-72
2022/11/23 16:16:46;;;;;;;3.73;1.37;;;9.30;99.90;;;;;;10441227;28;20306;-72
2022/11/23 16:21:52;;;;;;;4.53;1.90;;;9.40;99.90;;;;;;10426650;28;20293;-72
2022/11/23 16:26:54;;;;;;;5.03;1.50;;;9.60;99.90;;;;;;10424422;28;20241;-73
2022/11/23 16:32:04;;;;;;;5.37;2.17;;;9.70;99.90;;;;;;10431068;28;20267;-71
2022/11/23 16:37:04;;;;;;;17.00;3.80;;;9.80;99.90;;;;;;10433426;28;20265;-73
2022/11/23 16:42:05;;;;;;;7.93;3.43;;;9.90;99.90;;;;;;10430277;28;20698;-71
2022/11/23 16:47:19;;;;;;;10.03;4.00;;;9.90;99.90;;;;;;10439531;28;20233;-73
2022/11/23 16:52:22;;;;;;;6.40;2.67;;;9.90;99.90;;;;;;10436250;28;20932;-73
2022/11/23 16:57:29;;;;;;;7.73;2.33;;;9.90;99.90;;;;;;10436674;28;20217;-72
2022/11/23 17:02:30;;;;;;;5.10;1.77;;;10.00;99.90;;;;;;10434789;28;20952;-73
2022/11/23 17:07:30;;;;;;;5.30;1.50;;;10.00;99.90;;;;;;10428703;28;20349;-73
2022/11/23 17:12:31;;;;;;;4.03;2.03;;;10.00;99.90;;;;;;10431413;28;20306;-73
2022/11/23 17:17:32;;;;;;;3.00;1.40;;;10.00;99.90;;;;;;10428683;28;20227;-72
2022/11/23 17:22:32;;;;;;;6.50;2.10;;;10.00;99.90;;;;;;10439824;28;20222;-73
2022/11/23 17:27:37;;;;;;;6.63;1.87;;;10.00;99.90;;;;;;10434631;28;20215;-73
2022/11/23 17:32:37;;;;;;;3.87;2.03;;;10.00;99.90;;;;;;10427302;28;20597;-73
2022/11/23 17:37:38;;;;;;;3.43;1.67;;;9.90;99.90;;;;;;10429492;28;20231;-73
2022/11/23 17:42:38;;;;;;;6.40;1.90;;;9.70;99.90;;;;;;10432429;28;20222;-73
2022/11/23 17:47:41;;;;;;;4.30;2.40;;;9.60;99.90;;;;;;10429130;28;20215;-73
2022/11/23 17:52:43;;;;;;;4.27;2.13;;;9.40;99.90;;;;;;10431991;28;20272;-74
2022/11/23 17:57:44;;;;;;;3.53;1.97;;;9.30;99.90;;;;;;10433026;28;20574;-73
2022/11/23 18:02:45;;;;;;;4.80;2.30;;;9.20;99.90;;;;;;10428901;28;20223;-72
2022/11/23 18:07:46;;;;;;;5.43;2.20;;;9.10;99.90;;;;;;10433588;28;20560;-73
2022/11/23 18:12:47;;;;;;;3.53;1.93;;;9.00;99.90;;;;;;10438767;28;20222;-73
2022/11/23 18:17:47;;;;;;;5.33;2.30;;;8.90;99.90;;;;;;10433570;28;20222;-72
2022/11/23 18:22:48;;;;;;;7.23;2.30;;;8.90;99.90;;;;;;10428480;28;20231;-72
2022/11/23 18:27:49;;;;;;;5.07;2.10;;;8.80;99.90;;;;;;10429752;28;20288;-73
2022/11/23 18:32:50;;;;;;;5.90;2.30;;;8.70;99.90;;;;;;10428231;28;20322;-72
2022/11/23 18:37:50;;;;;;;7.07;2.67;;;8.70;99.90;;;;;;10427546;28;20226;-73
2022/11/23 18:42:51;;;;;;;8.43;3.40;;;8.70;99.90;;;;;;10435766;28;20238;-72
2022/11/23 18:47:51;;;;;;;7.00;2.10;;;8.70;99.90;;;;;;10429311;28;20227;-73
2022/11/23 18:52:52;;;;;;;4.60;2.03;;;8.70;99.90;;;;;;10432072;28;20218;-73
2022/11/23 18:57:53;;;;;;;5.60;2.43;;;8.70;99.90;;;;;;10451299;28;20219;-73
2022/11/23 19:02:56;;;;;;;5.67;2.90;;;8.60;99.90;;;;;;10443314;28;20230;-72
2022/11/23 19:08:04;;;;;;;8.27;3.50;;;8.60;99.90;;;;;;10446019;28;20222;-72
2022/11/23 19:13:04;;;;;;;6.23;3.17;;;8.60;99.90;;;;;;10438044;28;20222;-72
2022/11/23 19:18:05;;;;;;;7.77;3.60;;;8.60;99.90;;;;;;10445054;28;20602;-72
2022/11/23 19:23:06;;;;;;;3.83;3.30;;;8.60;99.90;;;;;;10441197;28;20229;-74
2022/11/23 19:28:06;;;;;;;6.87;4.10;;;8.70;99.90;;;;;;10441738;28;20604;-74
2022/11/23 19:33:07;;;;;;;8.33;4.73;;;8.70;99.90;;;;;;10441090;28;20237;-75
2022/11/23 19:38:21;;;;;;;6.97;3.30;;;8.70;99.90;;;;;;10443177;28;20242;-80
2022/11/23 19:43:21;;;;;;;4.80;3.30;;;8.60;99.90;;;;;;10441569;28;20314;-74
2022/11/23 19:48:23;;;;;;;8.60;3.40;;;8.70;99.90;;;;;;10443097;28;20218;-76
2022/11/23 19:53:23;;;;;;;8.27;3.93;;;8.60;99.90;;;;;;10438453;28;20234;-68
2022/11/23 19:58:24;;;;;;;7.90;4.30;;;8.60;99.90;;;;;;10437323;28;20225;-68
2022/11/23 20:03:25;;;;;;;8.60;4.37;;;8.50;99.90;;;;;;10439159;28;20227;-69
2022/11/23 20:08:25;;;;;;;7.03;3.50;;;8.50;99.90;;;;;;10449487;28;20713;-72
2022/11/23 20:13:29;;;;;;;8.53;3.83;;;8.50;99.90;;;;;;10447546;28;20605;-69
2022/11/23 20:18:30;;;;;;;7.57;4.20;;;8.50;99.90;;;;;;10450641;28;20265;-71
2022/11/23 20:23:31;;;;;;;6.53;3.67;;;8.50;99.90;;;;;;10445543;28;20225;-71
2022/11/23 20:28:32;;;;;;;5.87;3.83;;;8.50;99.90;;;;;;10446483;28;20218;-71
2022/11/23 20:33:33;;;;;;;7.30;3.60;;;8.50;99.90;;;;;;10444554;28;20214;-71
2022/11/23 20:38:38;;;;;;;9.90;3.63;;;8.40;99.90;;;;;;10440981;28;20272;-80
2022/11/23 20:43:39;;;;;;;6.37;4.20;;;8.50;99.90;;;;;;10443182;28;20221;-75
2022/11/23 20:48:45;;;;;;;7.07;3.87;;;8.40;99.90;;;;;;10443212;28;20221;-78
2022/11/23 20:53:50;;;;;;;8.30;4.30;;;8.30;99.90;;;;;;10457746;28;20218;-80
2022/11/23 20:58:56;;;;;;;7.00;4.00;;;8.10;99.90;;;;;;10457155;28;20230;-77
2022/11/23 21:04:08;;;;;;;7.73;3.97;;;8.00;99.90;;;;;;10450161;28;20251;-81
2022/11/23 21:09:10;;;;;;;8.30;4.93;;;7.90;99.90;;;;;;10458392;28;20293;-79
2022/11/23 21:14:17;;;;;;;7.23;4.70;;;7.70;99.90;;;;;;10447248;28;20224;-80
2022/11/23 21:19:22;;;;;;;5.50;4.90;;;7.50;99.90;;;;;;10447013;28;20220;-79
2022/11/23 21:24:24;;;;;;;7.57;4.90;;;7.40;99.90;;;;;;10446932;28;20223;-78
2022/11/23 21:29:26;;;;;;;8.23;5.80;;;7.50;99.90;;;;;;10451508;28;20782;-79
2022/11/23 21:34:28;;;;;;;8.50;5.17;;;7.50;99.90;;;;;;10439438;28;20559;-77
2022/11/23 21:39:30;;;;;;;8.30;5.23;;;7.40;99.90;;;;;;10430587;28;20312;-80
2022/11/23 21:44:30;;;;;;;11.07;5.47;;;7.30;99.90;;;;;;10421647;28;20238;-79
2022/11/23 21:49:31;;;;;;;7.37;5.00;;;7.40;99.90;;;;;;10436574;28;20219;-78
2022/11/23 21:54:31;;;;;;;6.77;5.47;;;7.50;99.90;;;;;;10427648;28;20220;-78
2022/11/23 21:59:32;;;;;;;9.80;4.50;;;7.60;99.90;;;;;;10428399;28;20216;-78
2022/11/23 22:04:35;;;;;;;8.97;4.73;;;7.60;99.90;;;;;;10436424;28;20236;-78
2022/11/23 22:09:37;;;;;;;7.90;5.17;;;7.40;99.90;;;;;;10452947;28;20221;-79
2022/11/23 22:14:38;;;;;;;7.30;5.20;;;7.40;99.90;;;;;;10427830;28;20219;-79
2022/11/23 22:19:38;;;;;;;8.40;5.20;;;7.40;99.90;;;;;;10426099;28;20630;-78
2022/11/23 22:24:39;;;;;;;7.90;4.83;;;7.60;99.90;;;;;;10433408;28;20223;-78
2022/11/23 22:29:42;;;;;;;8.17;4.60;;;7.70;99.90;;;;;;10431007;28;20224;-78
2022/11/23 22:34:42;;;;;;;7.53;4.40;;;7.90;99.90;;;;;;10435164;28;20224;-77
2022/11/23 22:39:43;;;;;;;7.27;4.20;;;8.00;99.90;;;;;;10433148;28;20225;-77
2022/11/23 22:44:43;;;;;;;6.33;4.03;;;8.10;99.90;;;;;;10431049;28;20229;-76
2022/11/23 22:49:45;;;;;;;7.60;4.20;;;8.20;99.90;;;;;;10430392;28;20333;-75
2022/11/23 22:54:46;;;;;;;8.87;4.77;;;8.20;99.90;;;;;;10426345;28;20706;-78
2022/11/23 22:59:46;;;;;;;7.83;4.23;;;8.30;99.90;;;;;;10424962;28;20254;-77
2022/11/23 23:05:02;;;;;;;10.27;3.93;;;8.30;99.90;;;;;;10442864;28;20221;-77
2022/11/23 23:10:03;;;;;;;12.33;3.60;;;8.30;99.90;;;;;;10436357;28;20223;-78
2022/11/23 23:15:03;;;;;;;9.50;3.50;;;8.30;99.90;;;;;;10423574;28;20306;-76
2022/11/23 23:20:05;;;;;;;10.87;3.20;;;8.20;99.90;;;;;;10427378;28;20239;-75
2022/11/23 23:25:07;;;;;;;6.93;3.33;;;8.10;99.90;;;;;;10433729;28;20368;-75
2022/11/23 23:30:08;;;;;;;9.77;3.20;;;7.90;99.90;;;;;;10429583;28;20644;-78
2022/11/23 23:35:13;;;;;;;14.33;3.17;;;7.80;99.90;;;;;;10433707;28;20241;-76
2022/11/23 23:40:14;;;;;;;15.37;4.07;;;7.60;99.90;;;;;;10434046;28;20282;-78
2022/11/23 23:45:14;;;;;;;14.07;3.23;;;7.60;99.90;;;;;;10433267;28;20341;-77
2022/11/23 23:50:15;;;;;;;8.90;3.33;;;7.50;99.90;;;;;;10440147;28;20177;-77
2022/11/23 23:55:16;;;;;;;16.03;3.37;;;7.60;99.90;;;;;;10431436;28;20679;-77
